Time;durP1;ratioP1;P1;durP2;ratioP2;P2;SDS_P1;SDS_P2;PMS_P1;PMS_P2;Temp;Humidity;BMP_temperature;BMP_pressure;BME280_temperature;BME280_humidity;BME280_pressure;Samples;Min_cycle;Max_cycle;Signal;HPM_P1;HPM_P2
2023/02/19 00:02:22;;;;;;;4.30;3.90;;;11.20;99.90;;;;;;4975781;28;20780;-70
2023/02/19 00:04:47;;;;;;;3.40;3.10;;;11.20;99.90;;;;;;4975844;28;20187;-70
2023/02/19 00:07:13;;;;;;;3.50;3.20;;;11.20;99.90;;;;;;4975667;28;20235;-70
2023/02/19 00:09:38;;;;;;;3.30;3.10;;;11.20;99.90;;;;;;4975025;28;20181;-69
2023/02/19 00:12:04;;;;;;;4.20;3.90;;;11.20;99.90;;;;;;4975610;28;20234;-69
2023/02/19 00:14:30;;;;;;;2.37;2.23;;;11.20;99.90;;;;;;4975612;28;20192;-69
2023/02/19 00:16:55;;;;;;;3.60;3.30;;;11.20;99.90;;;;;;4975583;28;20176;-70
2023/02/19 00:19:21;;;;;;;3.03;2.83;;;11.10;99.90;;;;;;4974929;28;20182;-70
2023/02/19 00:21:49;;;;;;;4.20;3.80;;;11.10;99.90;;;;;;4975354;28;20199;-69
2023/02/19 00:24:15;;;;;;;3.33;3.00;;;11.10;99.90;;;;;;4975513;28;20160;-70
2023/02/19 00:26:41;;;;;;;3.23;2.93;;;11.10;99.90;;;;;;4975449;28;20431;-69
2023/02/19 00:29:08;;;;;;;3.77;3.47;;;11.10;99.90;;;;;;4974662;28;20176;-69
2023/02/19 00:31:35;;;;;;;3.13;2.83;;;11.10;99.90;;;;;;4975227;28;20468;-69
2023/02/19 00:34:03;;;;;;;5.37;3.77;;;11.00;99.90;;;;;;4975297;28;20450;-69
2023/02/19 00:36:30;;;;;;;2.90;2.70;;;11.00;99.90;;;;;;4975184;28;20455;-69
2023/02/19 00:38:56;;;;;;;3.07;2.60;;;11.00;99.90;;;;;;4974465;28;20423;-70
2023/02/19 00:41:22;;;;;;;2.60;2.40;;;11.00;99.90;;;;;;4975038;28;20435;-69
2023/02/19 00:44:03;;;;;;;2.60;2.40;;;11.00;99.90;;;;;;4975102;28;20940;-69
2023/02/19 00:46:31;;;;;;;2.40;2.20;;;11.00;99.90;;;;;;4973749;28;20478;-69
2023/02/19 00:48:58;;;;;;;2.50;2.30;;;11.00;99.90;;;;;;4974295;28;20884;-69
2023/02/19 00:51:26;;;;;;;2.80;2.60;;;11.00;99.90;;;;;;4974902;28;20531;-70
2023/02/19 00:53:52;;;;;;;2.83;2.63;;;11.00;99.90;;;;;;4974825;28;20991;-69
2023/02/19 00:56:18;;;;;;;2.60;2.40;;;10.90;99.90;;;;;;4974820;28;20508;-69
2023/02/19 00:58:44;;;;;;;4.17;2.70;;;10.90;99.90;;;;;;4974085;28;20251;-69
2023/02/19 01:01:10;;;;;;;2.53;2.33;;;10.90;99.90;;;;;;4974598;28;20928;-69
2023/02/19 01:03:37;;;;;;;2.53;2.17;;;10.90;99.90;;;;;;4974727;28;20894;-69
2023/02/19 01:06:04;;;;;;;3.50;3.17;;;10.80;99.90;;;;;;4974635;28;20486;-69
2023/02/19 01:08:30;;;;;;;2.30;2.20;;;10.90;99.90;;;;;;4973937;28;20436;-69
2023/02/19 01:10:56;;;;;;;3.93;2.30;;;10.90;99.90;;;;;;4974549;28;20489;-69
2023/02/19 01:13:21;;;;;;;2.40;2.20;;;10.90;99.90;;;;;;4974448;28;20183;-69
2023/02/19 01:15:47;;;;;;;2.07;1.93;;;10.90;99.90;;;;;;4974464;28;20461;-69
2023/02/19 01:18:13;;;;;;;2.30;2.20;;;10.80;99.90;;;;;;4973674;28;20570;-70
2023/02/19 01:20:41;;;;;;;2.70;2.50;;;10.80;99.90;;;;;;4974366;28;20184;-69
2023/02/19 01:23:08;;;;;;;2.87;2.37;;;10.80;99.90;;;;;;4974444;28;20180;-69
2023/02/19 01:25:33;;;;;;;5.67;3.47;;;10.80;99.90;;;;;;4974140;28;20420;-70
2023/02/19 01:27:59;;;;;;;2.43;2.23;;;10.80;99.90;;;;;;4974251;28;21489;-69
2023/02/19 01:30:24;;;;;;;3.83;2.80;;;10.80;99.90;;;;;;4973508;28;20199;-69
2023/02/19 01:32:50;;;;;;;2.67;2.47;;;10.80;99.90;;;;;;4974245;28;20183;-70
2023/02/19 01:35:16;;;;;;;2.43;2.23;;;10.80;99.90;;;;;;4974059;28;20243;-68
2023/02/19 01:37:41;;;;;;;3.03;2.73;;;10.80;99.90;;;;;;4974098;28;20177;-70
2023/02/19 01:40:07;;;;;;;2.83;2.50;;;10.70;99.90;;;;;;4973227;28;20223;-69
2023/02/19 01:42:32;;;;;;;2.43;2.27;;;10.60;99.90;;;;;;4974040;28;20627;-69
2023/02/19 01:45:19;;;;;;;2.20;2.00;;;10.50;99.90;;;;;;4973929;28;20184;-69
2023/02/19 01:47:48;;;;;;;3.17;2.80;;;10.40;99.90;;;;;;4973912;28;20175;-70
2023/02/19 01:50:14;;;;;;;2.60;2.40;;;10.40;99.90;;;;;;4973135;28;20438;-70
2023/02/19 01:52:41;;;;;;;3.60;3.30;;;10.40;99.90;;;;;;4973762;28;20482;-69
2023/02/19 01:55:09;;;;;;;2.20;2.00;;;10.40;99.90;;;;;;4973695;28;20207;-69
2023/02/19 01:57:40;;;;;;;2.73;2.40;;;10.50;99.90;;;;;;4973387;28;20925;-69
2023/02/19 02:00:09;;;;;;;2.20;2.00;;;10.50;99.90;;;;;;4972870;28;20494;-70
2023/02/19 02:02:35;;;;;;;2.90;2.70;;;10.60;99.90;;;;;;4973727;28;20407;-70
2023/02/19 02:05:01;;;;;;;2.60;2.40;;;10.60;99.90;;;;;;4973681;28;20773;-69
2023/02/19 02:10:20;;;;;;;3.10;2.30;;;10.60;99.90;;;;;;4972765;28;20538;-70
2023/02/19 02:12:50;;;;;;;2.23;2.03;;;10.60;99.90;;;;;;4973588;28;20419;-69
2023/02/19 02:15:16;;;;;;;3.00;2.80;;;10.60;99.90;;;;;;4973379;28;20861;-69
2023/02/19 02:17:51;;;;;;;2.97;2.20;;;10.50;99.90;;;;;;4973369;28;20419;-70
2023/02/19 02:20:26;;;;;;;2.90;2.60;;;10.50;99.90;;;;;;4972639;28;20438;-69
2023/02/19 02:23:13;;;;;;;2.30;2.10;;;10.50;99.90;;;;;;4973341;28;20417;-69
2023/02/19 02:25:58;;;;;;;2.30;2.13;;;10.50;99.90;;;;;;4973440;28;20885;-69
2023/02/19 02:28:42;;;;;;;2.53;2.33;;;10.50;99.90;;;;;;4972477;28;21565;-69
2023/02/19 02:31:28;;;;;;;3.17;2.93;;;10.50;99.90;;;;;;4973255;28;20435;-69
2023/02/19 02:34:00;;;;;;;3.47;2.60;;;10.40;99.90;;;;;;4973191;28;20494;-69
2023/02/19 02:36:39;;;;;;;3.00;2.73;;;10.50;99.90;;;;;;4973048;28;20973;-69
2023/02/19 02:39:07;;;;;;;2.73;2.53;;;10.40;99.90;;;;;;4972432;28;20404;-68
2023/02/19 02:41:33;;;;;;;2.73;2.53;;;10.30;99.90;;;;;;4973229;28;20446;-70
2023/02/19 02:43:59;;;;;;;2.93;2.73;;;10.20;99.90;;;;;;4973116;28;20407;-69
2023/02/19 02:46:33;;;;;;;3.60;2.93;;;10.10;99.90;;;;;;4973023;28;20184;-70
2023/02/19 02:49:05;;;;;;;3.20;2.60;;;10.10;99.90;;;;;;4972346;28;20176;-69
2023/02/19 02:51:40;;;;;;;2.97;2.77;;;10.10;99.90;;;;;;4973063;28;20498;-69
2023/02/19 02:57:02;;;;;;;2.40;2.20;;;10.20;99.90;;;;;;4973310;28;20438;-70
2023/02/19 02:59:32;;;;;;;2.93;2.27;;;10.20;99.90;;;;;;4972143;28;20412;-69
2023/02/19 03:02:17;;;;;;;3.00;2.70;;;10.20;99.90;;;;;;4972745;28;20462;-69
2023/02/19 03:08:15;;;;;;;2.70;2.30;;;10.20;99.90;;;;;;4972834;28;20423;-69
2023/02/19 03:10:53;;;;;;;2.60;2.40;;;10.20;99.90;;;;;;4975777;28;20443;-70
2023/02/19 03:19:18;;;;;;;2.57;2.37;;;10.20;99.90;;;;;;4976181;28;20559;-69
2023/02/19 03:21:49;;;;;;;2.50;2.30;;;10.20;99.90;;;;;;4976550;28;20445;-69
2023/02/19 03:27:03;;;;;;;2.70;2.27;;;9.90;99.90;;;;;;4976604;28;20473;-70
2023/02/19 03:29:32;;;;;;;2.83;2.63;;;9.80;99.90;;;;;;4975752;28;20498;-70
2023/02/19 03:32:05;;;;;;;2.73;2.53;;;9.70;99.90;;;;;;4976311;28;20446;-69
2023/02/19 03:34:55;;;;;;;2.33;1.97;;;9.70;99.90;;;;;;4976367;28;20455;-69
2023/02/19 03:37:35;;;;;;;2.33;2.20;;;9.70;99.90;;;;;;4976004;28;20428;-69
2023/02/19 03:40:01;;;;;;;2.40;2.20;;;9.60;99.90;;;;;;4975465;28;20514;-70
2023/02/19 03:42:45;;;;;;;2.60;2.37;;;9.60;99.90;;;;;;4976257;28;20980;-69
2023/02/19 03:45:23;;;;;;;2.33;2.17;;;9.60;99.90;;;;;;4976105;28;20262;-70
2023/02/19 03:48:10;;;;;;;3.13;2.30;;;9.60;99.90;;;;;;4976156;28;20434;-69
2023/02/19 03:50:46;;;;;;;2.80;2.10;;;9.60;99.90;;;;;;4975830;28;20434;-70
2023/02/19 03:53:52;;;;;;;1.80;1.70;;;9.50;99.90;;;;;;4976040;28;20773;-70
2023/02/19 03:56:32;;;;;;;4.50;1.57;;;9.40;99.90;;;;;;4956632;28;20570;-70
2023/02/19 03:59:07;;;;;;;2.27;2.07;;;9.40;99.90;;;;;;4975261;28;20487;-69
2023/02/19 04:01:43;;;;;;;2.27;1.90;;;9.40;99.90;;;;;;4975690;28;20497;-69
2023/02/19 04:04:12;;;;;;;3.97;2.17;;;9.40;99.90;;;;;;4975698;28;20415;-70
2023/02/19 04:06:40;;;;;;;1.90;1.80;;;9.40;99.90;;;;;;4975759;28;20420;-70
2023/02/19 04:09:08;;;;;;;2.40;1.90;;;9.40;99.90;;;;;;4975036;28;20416;-70
2023/02/19 04:11:34;;;;;;;1.67;1.57;;;9.40;99.90;;;;;;4975633;28;20448;-70
2023/02/19 04:14:27;;;;;;;3.73;2.17;;;9.40;99.90;;;;;;4975586;28;20810;-70
2023/02/19 04:17:01;;;;;;;2.23;1.90;;;9.40;99.90;;;;;;4975560;28;20797;-69
2023/02/19 04:19:30;;;;;;;1.30;1.17;;;9.40;99.90;;;;;;4974853;28;20411;-69
2023/02/19 04:21:57;;;;;;;1.50;1.40;;;9.40;99.90;;;;;;4975291;28;20905;-69
2023/02/19 04:24:32;;;;;;;1.53;1.43;;;9.50;99.90;;;;;;4975440;28;20494;-70
2023/02/19 04:26:58;;;;;;;1.50;1.40;;;9.50;99.90;;;;;;4975477;28;20507;-70
2023/02/19 04:29:23;;;;;;;2.33;1.37;;;9.50;99.90;;;;;;4974552;28;20419;-69
2023/02/19 04:31:49;;;;;;;1.20;1.10;;;9.50;99.90;;;;;;4975019;28;20933;-70
2023/02/19 04:34:14;;;;;;;1.83;1.00;;;9.50;99.90;;;;;;4975283;28;20168;-69
2023/02/19 04:36:40;;;;;;;1.03;0.93;;;9.50;99.90;;;;;;4975270;28;20173;-69
2023/02/19 04:39:07;;;;;;;1.23;1.03;;;9.50;99.90;;;;;;4974413;28;20199;-69
2023/02/19 04:41:32;;;;;;;0.90;0.90;;;9.50;99.90;;;;;;4975090;28;20184;-69
2023/02/19 04:43:58;;;;;;;1.50;1.10;;;9.50;99.90;;;;;;4975113;28;20412;-70
2023/02/19 04:46:23;;;;;;;1.00;1.00;;;9.50;99.90;;;;;;4975065;28;20259;-69
2023/02/19 04:48:49;;;;;;;1.70;1.07;;;9.50;99.90;;;;;;4974352;28;20176;-69
2023/02/19 04:51:15;;;;;;;1.10;1.00;;;9.50;99.90;;;;;;4975055;28;20196;-69
2023/02/19 04:53:41;;;;;;;0.80;0.80;;;9.50;99.90;;;;;;4974891;28;20184;-70
2023/02/19 04:56:13;;;;;;;0.80;0.80;;;9.50;99.90;;;;;;4974798;28;20463;-69
2023/02/19 04:58:40;;;;;;;1.30;0.93;;;9.50;99.90;;;;;;4974088;28;20431;-70
2023/02/19 05:01:06;;;;;;;0.70;0.70;;;9.60;99.90;;;;;;4975171;28;20562;-70
2023/02/19 05:03:34;;;;;;;1.07;1.00;;;9.60;99.90;;;;;;4975022;28;20448;-69
2023/02/19 05:06:02;;;;;;;0.80;0.73;;;9.60;99.90;;;;;;4974815;28;20933;-70
2023/02/19 05:08:28;;;;;;;0.60;0.60;;;9.60;99.90;;;;;;4973989;28;20419;-70
2023/02/19 05:10:57;;;;;;;0.60;0.60;;;9.70;99.90;;;;;;4974587;28;20460;-69
2023/02/19 05:13:23;;;;;;;0.70;0.70;;;9.70;99.90;;;;;;4974558;28;20176;-70
2023/02/19 05:16:01;;;;;;;0.90;0.50;;;9.70;99.90;;;;;;4974567;28;20470;-70
2023/02/19 05:18:29;;;;;;;0.80;0.70;;;9.70;99.90;;;;;;4973867;28;20219;-70
2023/02/19 05:20:57;;;;;;;1.33;0.67;;;9.80;99.90;;;;;;4974463;28;20431;-70
2023/02/19 05:23:22;;;;;;;0.80;0.60;;;9.80;99.90;;;;;;4974417;28;20424;-69
2023/02/19 05:25:48;;;;;;;0.60;0.53;;;9.80;99.90;;;;;;4974376;28;20431;-69
2023/02/19 05:28:17;;;;;;;0.60;0.50;;;9.80;99.90;;;;;;4973553;28;20238;-70
2023/02/19 05:30:50;;;;;;;0.50;0.50;;;9.80;99.90;;;;;;4974258;28;20196;-70
2023/02/19 05:33:17;;;;;;;0.70;0.63;;;9.80;99.90;;;;;;4973829;28;20419;-69
2023/02/19 05:35:45;;;;;;;3.50;0.60;;;9.80;99.90;;;;;;4973990;28;20466;-69
2023/02/19 05:38:11;;;;;;;0.50;0.50;;;9.90;99.90;;;;;;4973576;28;20414;-70
2023/02/19 05:40:37;;;;;;;1.57;0.70;;;9.80;99.90;;;;;;4973915;28;21132;-69
2023/02/19 05:43:03;;;;;;;0.60;0.60;;;9.80;99.90;;;;;;4973960;28;20168;-69
2023/02/19 05:45:29;;;;;;;0.50;0.50;;;9.90;99.90;;;;;;4974001;28;20526;-69
2023/02/19 05:47:54;;;;;;;0.60;0.60;;;9.90;99.90;;;;;;4973966;28;20462;-69
2023/02/19 05:50:20;;;;;;;0.50;0.40;;;9.80;99.90;;;;;;4973203;28;20207;-69
2023/02/19 05:52:45;;;;;;;0.50;0.40;;;9.90;99.90;;;;;;4973996;28;20238;-69
2023/02/19 05:55:11;;;;;;;0.50;0.50;;;9.90;99.90;;;;;;4973718;28;20746;-69
2023/02/19 05:57:45;;;;;;;0.50;0.43;;;9.90;99.90;;;;;;4973733;28;20172;-69
2023/02/19 06:00:13;;;;;;;0.50;0.40;;;9.90;99.90;;;;;;4972777;28;21008;-69
2023/02/19 06:02:39;;;;;;;0.40;0.40;;;9.90;99.90;;;;;;4973727;28;20420;-69
2023/02/19 06:05:05;;;;;;;1.20;0.63;;;9.90;99.90;;;;;;4973644;28;21009;-69
2023/02/19 06:07:31;;;;;;;0.40;0.40;;;9.80;99.90;;;;;;4973624;28;20180;-69
2023/02/19 06:09:57;;;;;;;0.60;0.50;;;9.80;99.90;;;;;;4972814;28;20832;-69
2023/02/19 06:12:23;;;;;;;0.50;0.50;;;9.80;99.90;;;;;;4973535;28;20458;-69
2023/02/19 06:14:49;;;;;;;0.50;0.50;;;9.90;99.90;;;;;;4973470;28;20295;-70
2023/02/19 06:17:14;;;;;;;0.40;0.40;;;9.90;99.90;;;;;;4973478;28;20554;-69
2023/02/19 06:19:40;;;;;;;0.50;0.40;;;9.80;99.90;;;;;;4972810;28;20514;-69
2023/02/19 06:22:06;;;;;;;1.40;0.40;;;9.70;99.90;;;;;;4973454;28;20228;-69
2023/02/19 06:24:31;;;;;;;0.50;0.40;;;9.60;99.90;;;;;;4973377;28;20176;-69
2023/02/19 06:26:57;;;;;;;0.50;0.50;;;9.40;99.90;;;;;;4973355;28;20545;-69
2023/02/19 06:29:23;;;;;;;0.50;0.40;;;9.40;99.90;;;;;;4972602;28;20256;-69
2023/02/19 06:31:48;;;;;;;0.57;0.40;;;9.40;99.90;;;;;;4973217;28;20196;-70
2023/02/19 06:34:14;;;;;;;0.57;0.50;;;9.40;99.90;;;;;;4973643;28;20180;-69
2023/02/19 06:36:40;;;;;;;0.40;0.40;;;9.40;99.90;;;;;;4973295;28;20239;-69
2023/02/19 06:39:05;;;;;;;0.80;0.40;;;9.30;99.90;;;;;;4972469;28;20208;-69
2023/02/19 06:41:31;;;;;;;0.70;0.60;;;9.20;99.90;;;;;;4973109;28;20573;-69
2023/02/19 06:43:57;;;;;;;0.73;0.50;;;9.20;99.90;;;;;;4972269;28;20239;-70
2023/02/19 06:46:23;;;;;;;0.73;0.73;;;9.10;99.90;;;;;;4973230;28;20693;-69
2023/02/19 06:48:48;;;;;;;0.50;0.50;;;9.20;99.90;;;;;;4972708;28;20427;-69
2023/02/19 06:51:22;;;;;;;0.70;0.50;;;9.20;99.90;;;;;;4973214;28;20247;-69
2023/02/19 06:53:48;;;;;;;0.70;0.70;;;9.20;99.90;;;;;;4973115;28;20706;-69
2023/02/19 06:56:26;;;;;;;0.80;0.70;;;9.30;99.90;;;;;;4972875;28;20553;-69
2023/02/19 06:59:01;;;;;;;0.80;0.80;;;9.30;99.90;;;;;;4972264;28;20171;-70
2023/02/19 07:01:28;;;;;;;0.70;0.60;;;9.30;99.90;;;;;;4972926;28;20517;-69
2023/02/19 07:03:54;;;;;;;0.70;0.70;;;9.40;99.90;;;;;;4973019;28;20423;-69
2023/02/19 07:06:21;;;;;;;1.17;1.07;;;9.40;99.90;;;;;;4972999;28;20482;-69
2023/02/19 07:08:47;;;;;;;1.00;0.87;;;9.30;99.90;;;;;;4972261;28;20544;-69
2023/02/19 07:11:13;;;;;;;0.97;0.97;;;9.30;99.90;;;;;;4972827;28;20475;-69
2023/02/19 07:13:38;;;;;;;0.73;0.73;;;9.30;99.90;;;;;;4972836;28;20478;-69
2023/02/19 07:16:07;;;;;;;1.60;0.83;;;9.30;99.90;;;;;;4972860;28;20212;-69
2023/02/19 07:18:33;;;;;;;0.70;0.70;;;9.30;99.90;;;;;;4972150;28;20172;-69
2023/02/19 07:21:12;;;;;;;0.80;0.80;;;9.40;99.90;;;;;;4972813;28;20458;-69
2023/02/19 07:23:38;;;;;;;0.77;0.73;;;9.30;99.90;;;;;;4972793;28;20419;-69
2023/02/19 07:26:07;;;;;;;2.20;1.70;;;9.30;99.90;;;;;;4972703;28;20460;-69
2023/02/19 07:28:33;;;;;;;0.70;0.70;;;9.40;99.90;;;;;;4972018;28;20455;-70
2023/02/19 07:31:03;;;;;;;0.87;0.87;;;9.40;99.90;;;;;;4972715;28;20443;-69
2023/02/19 07:33:29;;;;;;;0.80;0.73;;;9.40;99.90;;;;;;4972769;28;20207;-69
2023/02/19 07:35:54;;;;;;;0.60;0.60;;;9.40;99.90;;;;;;4972622;28;20498;-69
2023/02/19 07:38:22;;;;;;;1.87;1.00;;;9.40;99.90;;;;;;4971938;28;20177;-69
2023/02/19 07:40:51;;;;;;;1.03;0.93;;;9.40;99.90;;;;;;4972503;28;20199;-69
2023/02/19 07:43:17;;;;;;;1.23;1.13;;;9.50;99.90;;;;;;4972692;28;20465;-69
2023/02/19 07:45:42;;;;;;;1.07;0.80;;;9.40;99.90;;;;;;4972609;28;20463;-69
2023/02/19 07:48:08;;;;;;;1.47;1.13;;;9.40;99.90;;;;;;4972469;28;20880;-70
2023/02/19 07:50:33;;;;;;;0.93;0.93;;;9.50;99.90;;;;;;4972130;28;20199;-69
2023/02/19 07:52:59;;;;;;;1.40;1.30;;;9.50;99.90;;;;;;4972614;28;20543;-69
2023/02/19 07:55:25;;;;;;;2.10;1.57;;;9.50;99.90;;;;;;4973233;28;20563;-70
2023/02/19 07:57:50;;;;;;;1.20;1.10;;;9.60;99.90;;;;;;4976199;28;20180;-69
2023/02/19 08:00:17;;;;;;;1.33;1.20;;;9.60;99.90;;;;;;4975201;28;20204;-69
2023/02/19 08:02:58;;;;;;;1.83;1.20;;;9.70;99.90;;;;;;4975979;28;20172;-69
2023/02/19 08:05:24;;;;;;;1.10;1.00;;;9.80;99.90;;;;;;4975853;28;20531;-70
2023/02/19 08:07:49;;;;;;;1.43;1.33;;;9.80;99.90;;;;;;4975690;28;20514;-69
2023/02/19 08:13:18;;;;;;;1.30;1.20;;;9.90;99.90;;;;;;4975761;28;20222;-69
2023/02/19 08:16:00;;;;;;;1.50;1.40;;;9.90;99.90;;;;;;4975652;28;20458;-69
2023/02/19 08:18:27;;;;;;;1.40;1.23;;;10.00;99.90;;;;;;4974903;28;20407;-69
2023/02/19 08:20:54;;;;;;;1.30;1.13;;;10.00;99.90;;;;;;4975624;28;20436;-69
2023/02/19 08:23:20;;;;;;;1.10;1.00;;;9.90;99.90;;;;;;4975548;28;20420;-70
2023/02/19 08:25:47;;;;;;;1.67;1.17;;;10.10;99.90;;;;;;4975390;28;20419;-69
2023/02/19 08:28:13;;;;;;;1.20;1.10;;;10.10;99.90;;;;;;4974742;28;20470;-70
2023/02/19 08:30:40;;;;;;;3.13;0.97;;;9.90;99.90;;;;;;4975279;28;20455;-69
2023/02/19 08:33:06;;;;;;;1.33;1.00;;;9.90;99.90;;;;;;4975220;28;20180;-69
2023/02/19 08:35:37;;;;;;;1.30;1.20;;;9.90;99.90;;;;;;4975194;28;20510;-68
2023/02/19 08:38:04;;;;;;;1.80;1.37;;;9.80;99.90;;;;;;4975437;28;20807;-69
2023/02/19 08:40:29;;;;;;;0.83;0.83;;;9.80;99.90;;;;;;4974581;28;20439;-70
2023/02/19 08:43:00;;;;;;;1.33;1.20;;;9.90;99.90;;;;;;4975120;28;20412;-69
2023/02/19 08:45:25;;;;;;;0.93;0.93;;;9.90;99.90;;;;;;4975113;28;20655;-69
2023/02/19 08:47:51;;;;;;;1.10;1.00;;;9.90;99.90;;;;;;4975161;28;20471;-69
2023/02/19 08:50:16;;;;;;;1.00;0.90;;;9.90;99.90;;;;;;4974285;28;20239;-69
2023/02/19 08:52:42;;;;;;;1.23;1.13;;;10.00;99.90;;;;;;4975071;28;20523;-70
2023/02/19 08:55:07;;;;;;;3.80;3.10;;;10.10;99.90;;;;;;4974896;28;20192;-70
2023/02/19 08:57:36;;;;;;;0.97;0.87;;;10.20;99.90;;;;;;4974960;28;20582;-69
2023/02/19 09:00:03;;;;;;;1.20;0.70;;;10.20;99.90;;;;;;4973955;28;20230;-69
2023/02/19 09:02:30;;;;;;;1.20;1.10;;;10.10;99.90;;;;;;4974673;28;20424;-69
2023/02/19 09:04:55;;;;;;;1.30;1.20;;;10.00;99.90;;;;;;4974721;28;20798;-69
2023/02/19 09:07:21;;;;;;;1.30;1.10;;;10.00;99.90;;;;;;4973936;28;20422;-69
2023/02/19 09:09:47;;;;;;;1.10;1.00;;;10.10;99.90;;;;;;4973926;28;20603;-69
2023/02/19 09:12:13;;;;;;;2.00;1.10;;;10.10;99.90;;;;;;4974651;28;20424;-69
2023/02/19 09:14:39;;;;;;;1.20;1.07;;;10.30;99.90;;;;;;4974489;28;20595;-69
2023/02/19 09:17:06;;;;;;;1.20;1.10;;;10.40;99.90;;;;;;4974560;28;20510;-69
2023/02/19 09:19:32;;;;;;;4.90;4.37;;;10.30;99.90;;;;;;4973667;28;20475;-70
2023/02/19 09:21:58;;;;;;;4.20;2.10;;;10.30;99.90;;;;;;4974359;28;20439;-69
2023/02/19 09:24:24;;;;;;;1.87;1.60;;;10.30;99.90;;;;;;4974423;28;20875;-69
2023/02/19 09:26:51;;;;;;;1.43;1.33;;;10.30;99.90;;;;;;4974412;28;20795;-69
2023/02/19 09:29:17;;;;;;;6.33;1.20;;;10.30;99.90;;;;;;4973584;28;20422;-70
2023/02/19 09:31:43;;;;;;;1.50;1.40;;;10.30;99.90;;;;;;4973958;28;20444;-69
2023/02/19 09:34:08;;;;;;;6.03;1.83;;;10.40;99.90;;;;;;4974248;28;20230;-69
2023/02/19 09:36:34;;;;;;;1.73;1.23;;;10.30;99.90;;;;;;4974088;28;20254;-70
2023/02/19 09:39:00;;;;;;;2.00;1.20;;;10.40;99.90;;;;;;4973342;28;20187;-69
2023/02/19 09:41:37;;;;;;;1.23;1.13;;;10.40;99.90;;;;;;4973990;28;20188;-69
2023/02/19 09:44:08;;;;;;;3.30;1.53;;;10.50;99.90;;;;;;4974089;28;20828;-69
2023/02/19 09:46:45;;;;;;;1.63;1.40;;;10.50;99.90;;;;;;4974252;28;20415;-70
2023/02/19 09:49:17;;;;;;;1.87;1.00;;;10.60;99.90;;;;;;4973269;28;20454;-69
2023/02/19 09:52:18;;;;;;;2.10;1.13;;;10.60;99.90;;;;;;4972549;28;20447;-70
2023/02/19 09:54:45;;;;;;;1.80;1.60;;;10.50;99.90;;;;;;4966886;28;20460;-69
2023/02/19 09:57:20;;;;;;;2.80;1.60;;;10.60;99.90;;;;;;4973906;28;20416;-69
2023/02/19 09:59:49;;;;;;;4.00;1.33;;;10.60;99.90;;;;;;4971527;28;20426;-69
2023/02/19 10:02:16;;;;;;;3.10;1.20;;;10.60;99.90;;;;;;4973739;28;20971;-69
2023/02/19 10:04:43;;;;;;;2.33;1.03;;;10.60;99.90;;;;;;4973589;28;20495;-69
2023/02/19 10:07:15;;;;;;;2.23;1.20;;;10.70;99.90;;;;;;4973525;28;20442;-69
2023/02/19 10:09:40;;;;;;;2.50;1.47;;;10.70;99.90;;;;;;4972855;28;20427;-70
2023/02/19 10:12:20;;;;;;;1.70;1.43;;;10.70;99.90;;;;;;4973492;28;20435;-69
2023/02/19 10:14:50;;;;;;;2.97;1.13;;;10.70;99.90;;;;;;4973500;28;20191;-69
2023/02/19 10:17:25;;;;;;;2.47;1.00;;;10.60;99.90;;;;;;4973723;28;20407;-69
2023/02/19 10:19:51;;;;;;;3.80;2.10;;;10.60;99.90;;;;;;4972479;28;20787;-69
2023/02/19 10:22:18;;;;;;;1.40;1.30;;;10.70;99.90;;;;;;4973327;28;20447;-69
2023/02/19 10:24:47;;;;;;;3.10;1.47;;;10.80;99.90;;;;;;4973354;28;20424;-70
2023/02/19 10:27:14;;;;;;;4.07;1.40;;;10.90;99.90;;;;;;4973273;28;20426;-69
2023/02/19 10:29:42;;;;;;;2.70;1.20;;;10.90;99.90;;;;;;4972512;28;20432;-70
2023/02/19 10:32:23;;;;;;;2.00;1.00;;;11.00;99.90;;;;;;4973186;28;20450;-69
2023/02/19 10:35:07;;;;;;;1.87;1.10;;;11.00;99.90;;;;;;4973168;28;20920;-70
2023/02/19 10:37:33;;;;;;;1.90;1.43;;;11.20;99.90;;;;;;4973230;28;20513;-69
2023/02/19 10:40:00;;;;;;;2.00;1.47;;;11.30;99.90;;;;;;4972370;28;20454;-69
2023/02/19 10:42:25;;;;;;;4.33;2.67;;;11.40;99.90;;;;;;4973263;28;20997;-69
2023/02/19 10:45:00;;;;;;;1.63;1.30;;;11.60;99.90;;;;;;4973164;28;20499;-69
2023/02/19 10:47:28;;;;;;;3.43;1.10;;;11.60;99.90;;;;;;4973176;28;20171;-70
2023/02/19 10:49:57;;;;;;;6.00;3.23;;;11.60;99.90;;;;;;4972330;28;20423;-69
2023/02/19 10:52:33;;;;;;;3.07;1.83;;;11.50;99.90;;;;;;4973004;28;20419;-70
2023/02/19 10:55:25;;;;;;;1.40;1.30;;;11.50;99.90;;;;;;4973442;28;20980;-69
2023/02/19 10:57:51;;;;;;;2.27;1.10;;;11.30;99.90;;;;;;4973074;28;20424;-70
2023/02/19 11:00:29;;;;;;;3.93;1.10;;;11.30;99.90;;;;;;4972138;28;20477;-70
2023/02/19 11:03:21;;;;;;;6.03;1.60;;;11.40;99.90;;;;;;4973446;28;20172;-70
2023/02/19 11:06:01;;;;;;;3.80;2.33;;;11.50;99.90;;;;;;4973021;28;20434;-71
2023/02/19 11:08:28;;;;;;;2.80;1.10;;;11.50;99.90;;;;;;4972382;28;20424;-71
2023/02/19 11:10:54;;;;;;;3.43;1.00;;;11.50;99.90;;;;;;4972916;28;20972;-70
2023/02/19 11:13:30;;;;;;;1.87;1.30;;;11.40;99.90;;;;;;4971543;28;20527;-70
2023/02/19 11:15:57;;;;;;;1.80;1.10;;;11.50;99.90;;;;;;4972938;28;20704;-70
2023/02/19 11:18:31;;;;;;;3.77;1.70;;;11.50;99.90;;;;;;4972161;28;20454;-70
2023/02/19 11:21:00;;;;;;;2.10;1.43;;;11.60;99.90;;;;;;4972823;28;20439;-70
2023/02/19 11:23:31;;;;;;;4.23;1.10;;;11.70;99.90;;;;;;4972812;28;20996;-71
2023/02/19 11:26:02;;;;;;;2.03;1.10;;;11.70;99.90;;;;;;4972821;28;20475;-71
2023/02/19 11:28:37;;;;;;;6.03;1.33;;;11.60;99.90;;;;;;4972194;28;20442;-70
2023/02/19 11:31:18;;;;;;;5.10;1.80;;;11.60;99.90;;;;;;4974505;28;20446;-70
2023/02/19 11:33:51;;;;;;;4.83;1.10;;;11.60;99.90;;;;;;4976500;28;20429;-70
2023/02/19 11:36:22;;;;;;;3.60;1.60;;;11.60;99.90;;;;;;4976254;28;20455;-70
2023/02/19 11:38:48;;;;;;;2.77;1.53;;;11.60;99.90;;;;;;4975641;28;20415;-71
2023/02/19 11:41:36;;;;;;;2.97;1.40;;;11.60;99.90;;;;;;4976273;28;20446;-70
2023/02/19 11:44:07;;;;;;;3.07;1.67;;;11.70;99.90;;;;;;4976387;28;20160;-70
2023/02/19 11:46:39;;;;;;;3.70;1.30;;;11.80;99.90;;;;;;4976230;28;20419;-70
2023/02/19 11:49:24;;;;;;;3.73;2.07;;;11.90;99.90;;;;;;4975541;28;20415;-71
2023/02/19 11:52:11;;;;;;;1.73;1.50;;;11.90;99.90;;;;;;4976096;28;20435;-70
2023/02/19 11:54:49;;;;;;;2.20;1.17;;;11.70;99.90;;;;;;4976037;28;20446;-70
2023/02/19 11:57:42;;;;;;;3.00;2.33;;;11.80;99.90;;;;;;4976045;28;20415;-71
2023/02/19 12:00:24;;;;;;;2.43;1.50;;;11.80;99.90;;;;;;4973842;28;20466;-70
2023/02/19 12:03:19;;;;;;;4.60;1.20;;;11.80;99.90;;;;;;4975964;28;20418;-71
2023/02/19 12:06:17;;;;;;;1.97;1.87;;;11.70;99.90;;;;;;4974577;28;20432;-71
2023/02/19 12:08:51;;;;;;;1.57;1.33;;;11.70;99.90;;;;;;4975229;28;20420;-71
2023/02/19 12:11:42;;;;;;;3.20;1.20;;;11.70;99.90;;;;;;4975798;28;20447;-70
2023/02/19 12:14:26;;;;;;;2.73;1.50;;;11.60;99.90;;;;;;4975789;28;20419;-70
2023/02/19 12:17:20;;;;;;;7.57;1.93;;;11.60;99.90;;;;;;4975752;28;20435;-71
2023/02/19 12:20:15;;;;;;;5.67;1.27;;;11.40;99.90;;;;;;4974909;28;20426;-70
2023/02/19 12:23:18;;;;;;;3.60;1.27;;;11.40;99.90;;;;;;4975611;28;20439;-70
2023/02/19 12:25:51;;;;;;;2.20;1.27;;;11.40;99.90;;;;;;4975508;28;20431;-70
2023/02/19 12:28:38;;;;;;;2.30;1.47;;;11.50;99.90;;;;;;4974759;28;20526;-70
2023/02/19 12:31:23;;;;;;;1.97;1.30;;;11.60;99.90;;;;;;4975336;28;20436;-70
2023/02/19 12:34:08;;;;;;;2.93;1.70;;;11.70;99.90;;;;;;4975444;28;20672;-71
2023/02/19 12:36:43;;;;;;;2.90;1.30;;;11.90;99.90;;;;;;4975253;28;20458;-70
2023/02/19 12:39:36;;;;;;;1.77;1.60;;;12.30;99.90;;;;;;4974722;28;20419;-70
2023/02/19 12:42:44;;;;;;;1.73;1.20;;;12.70;99.90;;;;;;4975086;28;20482;-70
2023/02/19 12:45:17;;;;;;;3.13;1.23;;;12.90;99.90;;;;;;4953480;29;20431;-71
2023/02/19 12:47:55;;;;;;;2.10;1.33;;;12.80;99.90;;;;;;4953485;29;20438;-70
2023/02/19 12:50:26;;;;;;;4.13;1.60;;;13.10;99.90;;;;;;4965822;28;20936;-70
2023/02/19 12:53:00;;;;;;;3.30;1.53;;;13.10;99.90;;;;;;4974999;28;20511;-70
2023/02/19 12:55:34;;;;;;;2.00;1.67;;;13.10;99.90;;;;;;4974908;28;20486;-70
2023/02/19 12:58:04;;;;;;;3.50;1.77;;;13.20;99.90;;;;;;4974852;28;20450;-70
2023/02/19 13:00:49;;;;;;;2.30;1.53;;;13.10;99.90;;;;;;4974142;28;20459;-71
2023/02/19 13:03:38;;;;;;;2.37;1.50;;;13.00;99.90;;;;;;4974784;28;20419;-70
2023/02/19 13:06:31;;;;;;;3.13;1.63;;;13.00;99.90;;;;;;4974797;28;20430;-70
2023/02/19 13:09:04;;;;;;;1.30;1.10;;;13.70;99.90;;;;;;4974034;28;20434;-70
2023/02/19 13:11:43;;;;;;;2.17;1.50;;;14.00;99.90;;;;;;4974647;28;20806;-70
2023/02/19 13:14:32;;;;;;;2.30;1.10;;;14.00;99.90;;;;;;4974464;28;20411;-70
2023/02/19 13:17:20;;;;;;;2.13;1.33;;;13.70;99.90;;;;;;4974528;28;20462;-70
2023/02/19 13:19:49;;;;;;;1.43;1.00;;;13.40;99.90;;;;;;4973768;28;20933;-70
2023/02/19 13:25:21;;;;;;;3.20;1.83;;;13.10;99.90;;;;;;4974743;28;20470;-70
2023/02/19 13:27:59;;;;;;;2.37;1.93;;;13.20;99.90;;;;;;4974392;28;20466;-70
2023/02/19 13:30:28;;;;;;;2.40;1.97;;;13.20;99.90;;;;;;4973644;28;20542;-70
2023/02/19 13:33:00;;;;;;;3.53;1.53;;;13.00;99.90;;;;;;4974159;28;20462;-70
2023/02/19 13:36:04;;;;;;;3.43;1.50;;;12.80;99.90;;;;;;4974172;28;20463;-70